Latest Weather Observations for Yarram Airport

IDV60801

Issued at 5:02 am EDT Monday 26 January 2015 (issued every 30 minutes, with the page automatically refreshed every 10 minutes)

About weather observations | Map of weather stations | Latest weather observations for VIC | Other Formats
Station Details ID: 085151 Name: YARRAM AIRPORT Lat: -38.56 Lon: 146.75 Height: 17.9 m
Data from the previous 72 hours. | See also: Recent months at Yarram Airport
Date/Time
EDT
Temp
°C
App
Temp
°C
Dew
Point
Rel
Hum
%
Delta-T
°C
Wind Press
QNH
hPa
Press
MSL
hPa
Rain
since 9 am
mm
Dir
 
Spd
km/h
Gust
km/h
Spd
kts
Gust
kts
26/05:00am 9.7 6.4 6.6 81 1.4 NNW 13 15 7 8 1013.5 1013.5 0.0
26/04:30am 8.4 5.1 6.4 87 0.9 NW 13 15 7 8 1013.2 1013.2 0.0
26/04:00am 8.9 6.0 6.5 85 1.1 NW 11 13 6 7 1013.1 1013.1 0.0
26/03:30am 8.9 6.0 6.3 84 1.2 WNW 11 15 6 8 1013.0 1013.0 0.0
26/03:00am 9.6 7.0 6.3 80 1.5 NW 9 11 5 6 1012.9 1012.9 0.0
26/02:30am 9.6 6.3 6.5 81 1.4 WNW 13 15 7 8 1012.7 1012.7 0.0
26/02:00am 9.4 6.2 6.7 83 1.3 WNW 13 15 7 8 1012.6 1012.6 0.0
26/01:30am 9.3 6.4 6.4 82 1.3 NW 11 13 6 7 1012.6 1012.6 0.0
26/01:00am 10.3 7.1 6.8 79 1.6 W 13 15 7 8 1012.6 1012.6 0.0
26/12:30am 11.0 7.5 7.3 78 1.8 WNW 15 19 8 10 1012.6 1012.6 0.0
26/12:00am 10.7 7.6 7.2 79 1.7 WNW 13 15 7 8 1012.6 1012.6 0.0
 
Date/Time
EDT
Temp
°C
App
Temp
°C
Dew
Point
Rel
Hum
%
Delta-T
°C
Wind Press
QNH
hPa
Press
MSL
hPa
Rain
since 9 am
mm
Dir
 
Spd
km/h
Gust
km/h
Spd
kts
Gust
kts
25/11:30pm 10.7 7.6 7.4 80 1.6 WNW 13 17 7 9 1012.6 1012.6 0.0
25/11:00pm 10.8 7.7 7.1 78 1.8 WNW 13 15 7 8 1012.6 1012.6 0.0
25/10:30pm 11.5 8.3 7.0 74 2.1 WNW 13 17 7 9 1012.5 1012.5 0.0
25/10:00pm 12.0 8.9 7.1 72 2.4 WNW 13 17 7 9 1012.3 1012.3 0.0
25/09:30pm 12.8 8.9 7.3 69 2.7 WNW 17 20 9 11 1011.8 1011.8 0.0
25/09:00pm 13.8 9.9 7.3 65 3.2 W 17 20 9 11 1011.5 1011.5 0.0
25/08:30pm 14.6 9.7 6.9 60 3.8 W 22 30 12 16 1010.9 1010.9 0.0
25/08:00pm 15.6 9.4 6.3 54 4.5 W 28 43 15 23 1010.6 1010.6 0.0
25/07:30pm 16.9 9.8 6.4 50 5.2 W 33 43 18 23 1010.3 1010.3 0.0
25/07:00pm 16.9 10.2 7.5 54 4.7 W 32 48 17 26 1010.0 1010.0 0.0
25/06:30pm 17.9 9.8 7.0 49 5.5 W 39 65 21 35 1009.5 1009.5 0.0
25/06:00pm 16.6 7.9 7.5 55 4.6 WSW 43 63 23 34 1008.9 1008.9 0.0
25/05:49pm 17.3 8.3 7.1 51 5.1 WSW 44 65 24 35 1008.7 1008.7 0.0
25/05:30pm 17.0 7.5 6.5 50 5.2 W 46 59 25 32 1008.4 1008.4 0.0
25/05:00pm 17.2 9.1 7.0 51 5.1 W 39 57 21 31 1008.1 1008.1 0.0
25/04:30pm 18.0 8.7 7.7 51 5.2 WSW 46 67 25 36 1007.8 1007.8 0.0
25/04:00pm 20.1 11.4 7.8 45 6.4 WSW 43 63 23 34 1007.2 1007.2 0.0
25/03:40pm 20.1 11.3 7.1 43 6.6 WSW 43 61 23 33 1007.1 1007.1 0.0
25/03:30pm 20.3 11.8 8.6 47 6.1 WSW 43 56 23 30 1007.0 1007.0 0.0
25/03:14pm 19.2 11.0 8.2 49 5.7 WSW 41 59 22 32 1007.0 1007.0 0.0
25/03:00pm 18.8 10.3 8.5 51 5.4 WSW 43 61 23 33 1006.9 1006.9 0.0
25/02:34pm 21.4 12.7 7.6 41 7.1 W 43 63 23 34 1006.5 1006.5 0.0
25/02:30pm 20.4 11.6 5.6 38 7.3 WSW 41 56 22 30 1006.5 1006.5 0.0
25/02:00pm 21.2 13.3 7.8 42 7.0 W 39 50 21 27 1006.4 1006.4 0.0
25/01:39pm 18.4 9.8 6.6 46 5.9 WSW 41 59 22 32 1006.3 1006.3 0.0
25/01:30pm 20.6 13.2 8.3 45 6.4 W 37 48 20 26 1006.3 1006.3 0.0
25/01:14pm 19.0 11.5 6.5 44 6.2 WSW 35 54 19 29 1006.2 1006.2 0.0
25/01:00pm 18.8 11.8 6.9 46 6.0 WSW 33 46 18 25 1006.1 1006.1 0.0
25/12:30pm 16.9 10.5 9.3 61 4.0 W 33 52 18 28 1006.3 1006.3 0.0
25/12:15pm 18.9 12.5 9.4 54 5.0 W 33 52 18 28 1006.2 1006.2 0.0
25/12:00pm 18.0 11.2 9.1 56 4.7 WSW 35 50 19 27 1005.9 1005.9 0.0
25/11:57am 18.2 12.0 9.3 56 4.7 WSW 32 50 17 27 1005.9 1005.9 0.0
25/11:30am 17.7 12.1 10.3 62 3.9 W 30 43 16 23 1005.9 1005.9 0.0
25/11:00am 17.3 11.2 10.4 64 3.7 W 33 46 18 25 1005.7 1005.7 0.0
25/10:43am 15.9 9.9 10.9 72 2.7 WSW 33 52 18 28 1005.6 1005.6 0.0
25/10:30am 17.4 11.6 10.8 65 3.5 W 32 43 17 23 1005.3 1005.3 0.0
25/10:00am 16.8 12.7 11.5 71 2.9 W 24 32 13 17 1005.1 1005.1 0.0
25/09:30am 15.8 11.3 11.4 75 2.4 WSW 26 39 14 21 1005.3 1005.3 0.0
25/09:00am 17.3 12.2 11.8 70 3.0 W 30 41 16 22 1004.9 1004.9 0.0
25/08:30am 15.3 10.6 11.9 80 1.8 W 28 35 15 19 1004.9 1004.9 0.0
25/08:00am 14.5 10.3 13.4 93 0.6 WSW 28 37 15 20 1004.6 1004.6 0.0
25/07:30am 14.1 7.9 12.8 92 0.7 WSW 37 56 20 30 1004.2 1004.2 0.0
25/07:29am 14.1 7.5 12.7 91 0.8 WSW 39 57 21 31 1004.2 1004.2 0.0
25/07:13am 15.7 13.2 12.3 80 1.9 WSW 17 52 9 28 1003.6 1003.6 0.0
25/07:00am 16.1 15.3 12.8 81 1.8 WSW 9 13 5 7 1003.0 1003.0 0.0
25/06:30am 16.2 14.0 12.2 77 2.2 NW 15 17 8 9 1002.4 1002.4 0.0
25/06:00am 14.8 13.0 12.1 84 1.5 NW 13 17 7 9 1001.7 1001.6 0.0
25/05:30am 16.4 15.0 13.3 82 1.7 WNW 13 17 7 9 1001.5 1001.4 0.0
25/05:00am 14.9 14.1 14.1 95 0.5 NW 11 13 6 7 1001.1 1001.0 0.0
25/04:30am 15.0 14.6 13.0 88 1.1 N 7 9 4 5 1000.6 1000.5 0.0
25/04:00am 17.6 17.0 14.7 83 1.7 W 11 15 6 8 1001.2 1001.1 0.0
25/03:30am 17.9 18.6 16.2 90 1.0 W 7 11 4 6 1001.2 1001.1 0.0
25/03:00am 18.0 18.9 16.5 91 0.9 WNW 7 9 4 5 1001.5 1001.4 0.0
25/02:30am 17.6 18.5 16.6 94 0.6 W 7 9 4 5 1001.7 1001.6 0.0
25/02:00am 17.5 17.7 16.7 95 0.5 WSW 11 15 6 8 1001.9 1001.8 0.0
25/01:30am 17.4 17.7 16.1 92 0.8 WSW 9 13 5 7 1001.8 1001.7 0.0
25/01:00am 18.2 18.4 16.7 91 0.9 WSW 11 15 6 8 1002.3 1002.3 0.0
25/12:30am 18.2 19.1 16.7 91 0.9 WSW 7 9 4 5 1002.3 1002.3 0.0
25/12:00am 18.4 20.3 16.6 89 1.1 WSW 2 11 1 6 1002.4 1002.4 0.0
 
Date/Time
EDT
Temp
°C
App
Temp
°C
Dew
Point
Rel
Hum
%
Delta-T
°C
Wind Press
QNH
hPa
Press
MSL
hPa
Rain
since 9 am
mm
Dir
 
Spd
km/h
Gust
km/h
Spd
kts
Gust
kts
24/11:30pm 18.5 20.8 16.7 89 1.1 CALM 0 0 0 0 1002.7 1002.7 0.0
24/11:00pm 18.1 20.2 16.3 89 1.1 CALM 0 0 0 0 1002.9 1002.9 0.0
24/10:30pm 18.0 20.1 16.2 89 1.1 CALM 0 0 0 0 1003.2 1003.2 0.0
24/10:00pm 17.8 19.6 15.6 87 1.3 CALM 0 0 0 0 1003.3 1003.3 0.0
24/09:30pm 18.6 19.3 16.0 85 1.5 E 7 9 4 5 1003.4 1003.4 0.0
24/09:00pm 19.0 19.4 16.2 84 1.7 ESE 9 13 5 7 1003.5 1003.5 0.0
24/08:30pm 19.5 19.5 16.3 82 1.9 E 11 17 6 9 1003.3 1003.3 0.0
24/08:00pm 20.0 19.5 16.0 78 2.4 ESE 13 20 7 11 1003.0 1003.0 0.0
24/07:30pm 20.6 20.1 16.0 75 2.8 ESE 13 19 7 10 1002.4 1002.4 0.0
24/07:00pm 20.9 20.0 15.9 73 3.0 E 15 20 8 11 1002.4 1002.4 0.0
24/06:30pm 21.4 20.1 15.9 71 3.3 E 17 24 9 13 1002.2 1002.2 0.0
24/06:00pm 22.2 21.0 16.0 68 3.8 E 17 30 9 16 1002.3 1002.3 0.0
24/05:30pm 22.5 20.7 16.1 67 3.9 E 20 28 11 15 1002.4 1002.4 0.0
24/05:00pm 22.5 21.2 15.8 66 4.0 E 17 22 9 12 1002.2 1002.2 0.0
24/04:30pm 22.7 20.7 15.5 64 4.3 ESE 20 33 11 18 1002.4 1002.4 0.0
24/04:00pm 22.2 20.3 15.3 65 4.1 ESE 19 28 10 15 1002.9 1002.9 0.0
24/03:30pm 22.6 19.5 15.7 65 4.1 SE 26 32 14 17 1003.1 1003.1 0.0
24/03:00pm 23.7 22.7 16.5 64 4.4 E 17 22 9 12 1003.1 1003.1 0.0
24/02:30pm 24.4 22.8 16.1 60 5.1 ESE 19 24 10 13 1003.3 1003.3 0.0
24/02:00pm 23.6 22.0 16.4 64 4.4 ESE 20 30 11 16 1003.8 1003.8 0.0
24/01:30pm 22.6 21.1 15.2 63 4.4 ESE 17 26 9 14 1004.0 1004.0 0.0
24/01:00pm 23.3 22.7 15.6 62 4.6 E 13 22 7 12 1004.3 1004.3 0.0
24/12:30pm 23.6 24.3 15.6 61 4.8 E 6 11 3 6 1004.6 1004.6 0.0
24/12:00pm 23.1 23.7 15.7 63 4.5 N 7 15 4 8 1005.0 1005.0 0.0
24/11:30am 23.0 22.6 16.1 65 4.2 N 13 20 7 11 1005.5 1005.5 0.0
24/11:00am 22.4 21.7 15.5 65 4.1 N 13 22 7 12 1005.7 1005.7 0.0
24/10:30am 21.3 19.8 15.4 69 3.5 NNE 17 26 9 14 1005.9 1005.9 0.0
24/10:00am 20.2 19.2 14.6 70 3.3 NNE 13 22 7 12 1006.1 1006.1 0.0
24/09:30am 19.9 19.3 14.5 71 3.1 NE 11 19 6 10 1006.3 1006.3 0.0
24/09:00am 18.1 18.1 15.2 83 1.7 NNE 9 13 5 7 1006.4 1006.4 0.0
24/08:30am 17.1 17.1 15.3 89 1.0 N 9 11 5 6 1006.1 1006.1 0.0
24/08:00am 16.5 16.9 15.4 93 0.6 NE 7 11 4 6 1006.4 1006.4 0.0
24/07:30am 16.5 16.3 14.7 89 1.0 NNE 9 11 5 6 1006.3 1006.3 0.0
24/07:00am 16.2 15.9 14.4 89 1.0 N 9 13 5 7 1006.3 1006.3 0.0
24/06:30am 16.4 17.3 14.1 86 1.3 E 2 7 1 4 1006.3 1006.3 0.0
24/06:00am 16.2 17.5 14.0 87 1.3 CALM 0 6 0 3 1006.5 1006.5 0.0
24/05:30am 16.4 16.3 13.9 85 1.4 NE 7 11 4 6 1006.5 1006.5 0.0
24/05:00am 16.5 16.0 13.8 84 1.5 ENE 9 13 5 7 1006.6 1006.6 0.0
24/04:30am 16.4 15.9 13.9 85 1.4 ENE 9 13 5 7 1006.4 1006.4 0.0
24/04:00am 16.6 16.1 13.9 84 1.5 E 9 13 5 7 1006.6 1006.6 0.0
24/03:30am 16.7 16.6 13.8 83 1.6 ESE 7 11 4 6 1006.8 1006.8 0.0
24/03:00am 17.0 16.5 13.7 81 1.9 E 9 13 5 7 1007.0 1007.0 0.0
24/02:30am 17.3 16.8 13.8 80 2.0 SE 9 11 5 6 1007.2 1007.2 0.0
24/02:00am 17.4 17.0 14.1 81 1.9 SE 9 11 5 6 1007.4 1007.4 0.0
24/01:30am 17.4 17.0 14.1 81 1.9 SSE 9 11 5 6 1007.7 1007.7 0.0
24/01:00am 17.5 17.6 14.4 82 1.8 SSE 7 9 4 5 1007.9 1007.9 0.0
24/12:30am 17.8 19.0 13.9 78 2.2 CALM 0 0 0 0 1008.0 1008.0 0.0
24/12:00am 17.8 17.6 13.1 74 2.6 SSW 6 7 3 4 1008.3 1008.3 0.0
 
Date/Time
EDT
Temp
°C
App
Temp
°C
Dew
Point
Rel
Hum
%
Delta-T
°C
Wind Press
QNH
hPa
Press
MSL
hPa
Rain
since 9 am
mm
Dir
 
Spd
km/h
Gust
km/h
Spd
kts
Gust
kts
23/11:30pm 18.0 17.6 13.1 73 2.8 WSW 7 9 4 5 1008.8 1008.8 0.0
23/11:00pm 18.0 17.7 13.3 74 2.7 SW 7 9 4 5 1009.1 1009.1 0.0
23/10:30pm 18.2 18.0 13.7 75 2.6 W 7 11 4 6 1009.2 1009.2 0.0
23/10:00pm 18.3 17.8 13.8 75 2.6 W 9 11 5 6 1009.5 1009.5 0.0
23/09:30pm 18.4 17.6 13.9 75 2.6 W 11 15 6 8 1009.5 1009.5 0.0
23/09:00pm 18.5 16.9 13.8 74 2.7 WSW 15 20 8 11 1009.1 1009.1 0.0
23/08:30pm 18.7 15.8 14.0 74 2.7 WSW 22 28 12 15 1008.9 1008.9 0.0
23/08:00pm 19.0 15.8 13.0 68 3.4 SW 22 32 12 17 1008.5 1008.5 0.0
23/07:30pm 19.3 14.8 12.6 65 3.8 SW 28 35 15 19 1008.1 1008.1 0.0
23/07:00pm 19.7 15.2 12.7 64 4.0 SW 28 41 15 22 1007.8 1007.8 0.0
23/06:30pm 19.9 13.8 12.9 64 4.0 SW 37 50 20 27 1006.9 1006.9 0.0
23/06:00pm 21.9 16.7 14.5 63 4.4 SW 35 46 19 25 1006.1 1006.1 0.0
23/05:30pm 21.2 16.2 14.1 64 4.1 SW 33 44 18 24 1006.5 1006.5 0.0
23/05:00pm 20.9 16.0 15.4 71 3.3 SW 35 43 19 23 1006.5 1006.5 0.0
23/04:30pm 22.2 17.6 16.2 69 3.6 SW 35 46 19 25 1005.9 1005.9 0.0
23/04:00pm 23.5 18.3 15.5 60 4.8 SW 37 48 20 26 1005.6 1005.6 0.0
23/03:30pm 24.4 20.4 16.6 61 4.8 SW 33 46 18 25 1005.3 1005.3 0.0
23/03:00pm 24.3 18.4 16.6 62 4.7 SW 43 52 23 28 1004.8 1004.8 0.0
23/02:30pm 23.3 18.3 16.1 64 4.4 SW 37 48 20 26 1005.4 1005.4 0.0
23/02:00pm 24.4 18.8 15.6 58 5.3 SW 39 54 21 29 1005.3 1005.3 0.0
23/01:30pm 25.1 18.0 13.3 48 6.9 SW 43 59 23 32 1004.9 1004.9 0.0
23/01:00pm 26.5 19.7 10.6 37 9.0 SW 37 52 20 28 1004.9 1004.9 0.0
23/12:30pm 25.5 18.0 10.9 40 8.2 SW 41 52 22 28 1004.8 1004.8 0.0
23/12:00pm 25.2 19.4 14.0 49 6.6 SW 37 48 20 26 1004.9 1004.9 0.0
23/11:30am 25.9 20.5 15.9 54 6.1 SW 39 50 21 27 1004.5 1004.5 0.0
23/11:00am 25.7 20.5 17.4 60 5.2 SW 41 54 22 29 1004.3 1004.3 0.0
23/10:30am 25.5 21.1 18.4 65 4.5 SW 39 50 21 27 1004.1 1004.1 0.0
23/10:00am 25.8 23.9 19.4 67 4.1 SW 28 35 15 19 1004.0 1004.0 0.0
23/09:30am 24.5 24.0 19.1 72 3.4 SW 20 26 11 14 1004.0 1004.0 0.0
23/09:00am 23.6 23.3 19.5 78 2.6 SW 20 26 11 14 1003.8 1003.8 0.0
23/08:30am 23.0 24.1 19.6 81 2.2 SSW 13 22 7 12 1003.5 1003.5 0.0
23/08:00am 21.5 22.9 19.6 89 1.2 SW 11 15 6 8 1003.2 1003.2 0.0
23/07:30am 19.9 21.2 19.2 96 0.4 SW 11 15 6 8 1003.3 1003.3 0.0
23/07:00am 19.1 19.9 19.1 100 0.0 SW 13 17 7 9 1002.8 1002.8 0.0
23/06:30am 18.3 19.8 18.1 99 0.1 NNW 7 11 4 6 1002.2 1002.2 0.0
23/06:00am 18.3 20.7 18.0 98 0.2 SSW 2 6 1 3 1002.0 1002.0 0.0
23/05:30am 18.5 18.9 18.2 98 0.2 SW 13 15 7 8 1002.0 1002.0 0.0

Other Formats:

Comma delimited format used in spreadsheet applications
http://www.bom.gov.au/fwo/IDV60801/IDV60801.95890.axf

JavaScript Object Notation format (JSON) in row-major order
http://www.bom.gov.au/fwo/IDV60801/IDV60801.95890.json